createdAt,value
2019-03-12T10:15:20.965Z,7
2019-03-12T10:15:28.844Z,7.3
2019-03-12T10:15:36.721Z,7.3
2019-03-12T10:15:44.597Z,5.8
2019-03-12T10:15:52.490Z,5.9
2019-03-12T10:16:00.388Z,4.4
2019-03-12T10:16:08.315Z,5.5
2019-03-12T10:16:16.270Z,5.3
2019-03-12T10:16:24.149Z,5.2
2019-03-12T10:16:32.093Z,5.3
2019-03-12T10:16:40.985Z,4.9
2019-03-12T10:16:48.904Z,4.2
2019-03-12T10:16:56.795Z,4.7
2019-03-12T10:17:04.702Z,4.5
2019-03-12T10:17:12.598Z,5.9
2019-03-12T10:17:20.474Z,5.7
2019-03-12T10:17:28.353Z,6.4
2019-03-12T10:17:37.225Z,8.2
2019-03-12T10:17:45.155Z,5.3
2019-03-12T10:17:53.122Z,4.4
2019-03-12T10:18:02.700Z,4.6
2019-03-12T10:18:09.925Z,3.2
2019-03-12T10:18:17.879Z,3.2
2019-03-12T10:18:25.771Z,3.1
2019-03-12T10:18:33.692Z,3.1
2019-03-12T10:18:41.685Z,2.3
2019-03-12T10:18:50.069Z,2.6
2019-03-12T10:18:58.595Z,2.5
2019-03-12T10:19:08.053Z,4
2019-03-12T10:19:16.522Z,4.8
2019-03-12T10:19:24.394Z,4.7
2019-03-12T10:19:32.306Z,4.7
2019-03-12T10:19:40.283Z,4.3
2019-03-12T10:19:48.145Z,3.8
2019-03-12T10:19:56.051Z,3.5
2019-03-12T10:20:03.937Z,4.3
2019-03-12T10:20:11.846Z,4.9
2019-03-12T10:20:19.725Z,5
2019-03-12T10:20:27.634Z,6.3
2019-03-12T10:20:35.507Z,7
2019-03-12T10:20:43.452Z,6.5
2019-03-12T10:20:51.314Z,5.6
2019-03-12T10:20:59.243Z,3.9
2019-03-12T10:21:07.109Z,4.4
2019-03-12T10:21:15.975Z,3.6
2019-03-12T10:21:23.859Z,3.6
2019-03-12T10:21:31.848Z,2.7
2019-03-12T10:21:39.758Z,2.1
2019-03-12T10:21:47.663Z,2.2
2019-03-12T10:21:55.562Z,2.4
2019-03-12T10:22:03.439Z,2.6
2019-03-12T10:22:11.305Z,3.5
2019-03-12T10:22:19.212Z,4.1
2019-03-12T10:22:27.097Z,3.6
2019-03-12T10:22:34.981Z,4.5
2019-03-12T10:22:42.902Z,4
2019-03-12T10:22:50.760Z,3.8
2019-03-12T10:22:58.642Z,4.3
2019-03-12T10:23:06.508Z,4.1
2019-03-12T10:23:14.374Z,4.5
2019-03-12T10:23:22.325Z,5.1
2019-03-12T10:23:30.297Z,5.9
2019-03-12T10:23:38.169Z,5.5
2019-03-12T10:23:46.052Z,5.5
2019-03-12T10:23:53.969Z,4.2
2019-03-12T10:24:01.822Z,3.3
2019-03-12T10:24:09.705Z,3.1
2019-03-12T10:24:17.567Z,2.6
2019-03-12T10:24:28.517Z,3
2019-03-12T10:24:35.409Z,2.9
2019-03-12T10:24:43.358Z,3.3
2019-03-12T10:24:51.250Z,3.9
2019-03-12T10:24:59.112Z,2.9
2019-03-12T10:25:07.085Z,2.5
2019-03-12T10:25:14.980Z,2.5
2019-03-12T10:25:22.856Z,3
2019-03-12T10:25:30.772Z,3.3
2019-03-12T10:25:38.638Z,2.5
2019-03-12T10:25:46.535Z,2.8
2019-03-12T10:25:54.449Z,3.3
2019-03-12T10:26:02.381Z,3.1
2019-03-12T10:26:10.264Z,3.3
2019-03-12T10:26:18.131Z,3.6
2019-03-12T10:26:25.993Z,3.5
2019-03-12T10:26:33.894Z,3.4
2019-03-12T10:26:41.800Z,3.4
2019-03-12T10:26:49.697Z,2.6
2019-03-12T10:26:57.541Z,2.7
2019-03-12T10:27:05.420Z,2.9
2019-03-12T10:27:13.318Z,2.7
2019-03-12T10:27:21.207Z,2.4
2019-03-12T10:27:29.086Z,1.5
2019-03-12T10:27:36.982Z,1.8
2019-03-12T10:27:45.862Z,2.4
2019-03-12T10:27:54.739Z,2.6
2019-03-12T10:28:02.682Z,3.1
2019-03-12T10:28:10.577Z,3.2
2019-03-12T10:28:18.457Z,2.9
2019-03-12T10:28:26.354Z,3.1
2019-03-12T10:28:34.231Z,2.8
2019-03-12T10:28:42.155Z,3
2019-03-12T10:28:50.060Z,3.6
2019-03-12T10:28:57.925Z,5.2
2019-03-12T10:29:05.904Z,5.4
2019-03-12T10:29:13.792Z,6.5
2019-03-12T10:29:21.656Z,5.2
2019-03-12T10:29:30.527Z,3.7
2019-03-12T10:29:38.421Z,3.6
2019-03-12T10:29:46.356Z,2.6
2019-03-12T10:29:54.259Z,2.4
2019-03-12T10:30:02.154Z,2.7
2019-03-12T10:30:10.073Z,2.6
2019-03-12T10:30:18.020Z,2.1
2019-03-12T10:30:25.905Z,2.3
2019-03-12T10:30:33.778Z,2.3
2019-03-12T10:30:42.649Z,3
2019-03-12T10:30:50.579Z,4.1
2019-03-12T10:30:58.473Z,4.4
2019-03-12T10:31:06.355Z,4.2
2019-03-12T10:31:15.258Z,4
2019-03-12T10:31:23.138Z,3.9
2019-03-12T10:31:31.108Z,4.5
2019-03-12T10:31:38.996Z,5.3
2019-03-12T10:31:46.873Z,4.9
2019-03-12T10:31:54.784Z,4.1
2019-03-12T10:32:02.742Z,3
2019-03-12T10:32:10.616Z,2.8
2019-03-12T10:32:19.491Z,2.4
2019-03-12T10:32:27.373Z,3
2019-03-12T10:32:35.279Z,2.5
2019-03-12T10:32:43.155Z,3.1
2019-03-12T10:32:51.057Z,3
2019-03-12T10:32:58.958Z,2.9
2019-03-12T10:33:06.850Z,3
2019-03-12T10:33:14.764Z,3.1
2019-03-12T10:33:22.650Z,3
2019-03-12T10:33:30.533Z,2.9
2019-03-12T10:33:38.503Z,3.4
2019-03-12T10:33:46.440Z,3.3
2019-03-12T10:33:54.336Z,3.4
2019-03-12T10:34:02.252Z,3.4
2019-03-12T10:34:10.103Z,4.2
2019-03-12T10:34:28.758Z,4.5
2019-03-12T10:34:31.866Z,3.8
2019-03-12T10:34:39.748Z,5.2
2019-03-12T10:34:47.648Z,4.1
2019-03-12T10:34:56.523Z,3.7
2019-03-12T10:35:04.466Z,2.3
2019-03-12T10:35:12.374Z,1.9
2019-03-12T10:35:20.484Z,3.1
2019-03-12T10:35:29.050Z,4.2
2019-03-12T10:35:36.911Z,4.4
2019-03-12T10:35:44.779Z,4.6
2019-03-12T10:35:52.700Z,4
2019-03-12T10:36:01.723Z,4.6
2019-03-12T10:36:11.021Z,4.4
2019-03-12T10:36:18.915Z,5.2
2019-03-12T10:36:26.653Z,4.2
2019-03-12T10:36:36.571Z,4.9
2019-03-12T10:36:44.444Z,3.4
2019-03-12T10:36:52.319Z,4
2019-03-12T10:37:11.641Z,4.2
2019-03-12T10:37:17.040Z,4.1
2019-03-12T10:37:24.973Z,3.5
2019-03-12T10:37:32.879Z,3.6
2019-03-12T10:37:40.775Z,4.4
2019-03-12T10:37:48.649Z,4
2019-03-12T10:37:56.545Z,4.2
2019-03-12T10:38:04.456Z,4.1
2019-03-12T10:38:12.314Z,3.4
2019-03-12T10:38:20.199Z,3.3
2019-03-12T10:38:28.123Z,3.3
2019-03-12T10:38:36.002Z,3.6
2019-03-12T10:38:43.889Z,3.1
2019-03-12T10:38:51.799Z,2.4
2019-03-12T10:38:59.727Z,2.1
2019-03-12T10:39:07.603Z,1.9
2019-03-12T10:39:15.486Z,2.1
2019-03-12T10:39:23.343Z,2.3
2019-03-12T10:39:31.217Z,2.4
2019-03-12T10:39:39.085Z,2.6
2019-03-12T10:39:46.958Z,3.3
2019-03-12T10:39:54.841Z,3.2
2019-03-12T10:40:02.785Z,3.1
2019-03-12T10:40:10.698Z,3.5
2019-03-12T10:40:18.594Z,3.4
2019-03-12T10:40:26.477Z,3.6
2019-03-12T10:40:34.417Z,3.4
2019-03-12T10:40:43.282Z,2.8
2019-03-12T10:40:51.165Z,3.5
2019-03-12T10:40:59.027Z,2.6
2019-03-12T10:41:06.954Z,2.6
2019-03-12T10:41:14.852Z,2.8
2019-03-12T10:41:22.723Z,2.9
2019-03-12T10:41:32.585Z,3.2
2019-03-12T10:41:40.515Z,4.5
2019-03-12T10:41:48.502Z,3.6
2019-03-12T10:41:56.370Z,3.3
2019-03-12T10:42:04.290Z,3.8
2019-03-12T10:42:12.175Z,5.3
2019-03-12T10:42:21.047Z,5.4
2019-03-12T10:42:28.919Z,5.2
2019-03-12T10:42:36.847Z,5.2
2019-03-12T10:42:44.725Z,2.8
2019-03-12T10:42:52.603Z,3.8
2019-03-12T10:43:00.486Z,3.7
2019-03-12T10:43:08.424Z,3.4
2019-03-12T10:43:18.299Z,3.6
2019-03-12T10:43:26.168Z,2.2
2019-03-12T10:43:34.040Z,2.3
2019-03-12T10:43:41.914Z,2.8
2019-03-12T10:43:49.794Z,2.3
2019-03-12T10:43:58.699Z,2.1
2019-03-12T10:44:06.571Z,2.5
2019-03-12T10:44:14.424Z,2.7
2019-03-12T10:44:23.349Z,3.1
2019-03-12T10:44:31.234Z,3
2019-03-12T10:44:39.113Z,3
2019-03-12T10:44:48.039Z,3
2019-03-12T10:44:55.901Z,3.5
2019-03-12T10:45:03.848Z,3.8
2019-03-12T10:45:11.710Z,2.8
2019-03-12T10:45:19.678Z,3.4
2019-03-12T10:45:28.542Z,3.2
2019-03-12T10:45:36.414Z,3.3
2019-03-12T10:45:44.322Z,2.4
2019-03-12T10:45:52.215Z,2.8
2019-03-12T10:46:00.093Z,2.4
2019-03-12T10:46:08.011Z,2.9
2019-03-12T10:46:16.878Z,2.8
2019-03-12T10:46:25.780Z,4
2019-03-12T10:46:33.674Z,5.4
2019-03-12T10:46:41.544Z,5.1
2019-03-12T10:46:49.453Z,6.7
2019-03-12T10:46:57.367Z,4.4
2019-03-12T10:47:05.241Z,4.2
2019-03-12T10:47:13.172Z,2.2
2019-03-12T10:47:21.057Z,2.3
2019-03-12T10:47:28.945Z,2.7
2019-03-12T10:47:36.843Z,3
2019-03-12T10:47:44.783Z,3.5
2019-03-12T10:47:53.692Z,4.4
2019-03-12T10:48:02.591Z,3.2
2019-03-12T10:48:10.500Z,3.1
2019-03-12T10:48:18.393Z,2.9
2019-03-12T10:48:26.264Z,2.6
2019-03-12T10:48:34.173Z,2.8
2019-03-12T10:48:42.078Z,1.9
2019-03-12T10:48:49.964Z,3.1
2019-03-12T10:48:57.837Z,2.9
2019-03-12T10:49:05.772Z,3.7
2019-03-12T10:49:14.677Z,3.4
2019-03-12T10:49:22.559Z,2.7
2019-03-12T10:49:37.590Z,3
2019-03-12T10:49:45.243Z,3.2
2019-03-12T10:49:53.109Z,3.1
2019-03-12T10:50:01.031Z,2.7
2019-03-12T10:50:08.905Z,2.5
2019-03-12T10:50:16.920Z,2.6
2019-03-12T10:50:24.815Z,2.6
2019-03-12T10:50:32.702Z,2.1
2019-03-12T10:50:41.599Z,2.5
2019-03-12T10:50:49.496Z,3.4
2019-03-12T10:50:57.413Z,3.5
2019-03-12T10:51:05.398Z,3.6
2019-03-12T10:51:15.238Z,4.1
2019-03-12T10:51:23.121Z,3.4
2019-03-12T10:51:31.016Z,3.3
2019-03-12T10:51:38.937Z,2.9
2019-03-12T10:51:47.817Z,2.2
2019-03-12T10:51:55.680Z,2.2
2019-03-12T10:52:03.619Z,2.3
2019-03-12T10:52:11.554Z,2.2
2019-03-12T10:52:19.488Z,2.9
2019-03-12T10:52:27.412Z,3
2019-03-12T10:52:35.272Z,3.1
2019-03-12T10:52:43.156Z,3
2019-03-12T10:52:51.180Z,2.4
2019-03-12T10:52:59.063Z,2.7
2019-03-12T10:53:06.975Z,2.5
2019-03-12T10:53:14.833Z,5.4
2019-03-12T10:53:22.708Z,5.3
2019-03-12T10:53:31.597Z,5.5
2019-03-12T10:53:39.501Z,5.6
2019-03-12T10:53:47.426Z,2.9
2019-03-12T10:53:55.295Z,2.6
2019-03-12T10:54:03.247Z,3
2019-03-12T10:54:11.136Z,3.1
2019-03-12T10:54:20.053Z,4.2
2019-03-12T10:54:27.924Z,3.7
2019-03-12T10:54:35.874Z,3.1
2019-03-12T10:54:44.768Z,4.2
2019-03-12T10:54:52.706Z,3.6
2019-03-12T10:55:12.060Z,4
2019-03-12T10:55:15.546Z,2.7
2019-03-12T10:55:23.451Z,2.4
2019-03-12T10:55:31.428Z,2.1
2019-03-12T10:55:39.320Z,2.9
2019-03-12T10:55:47.261Z,3.3
2019-03-12T10:55:55.137Z,3.7
2019-03-12T10:56:03.027Z,5
2019-03-12T10:56:10.922Z,4.6
2019-03-12T10:56:18.875Z,4.9
2019-03-12T10:56:26.779Z,4.8
2019-03-12T10:56:34.657Z,2.9
2019-03-12T10:56:42.607Z,2.8
2019-03-12T10:56:50.485Z,2.7
2019-03-12T10:56:59.388Z,3.1
2019-03-12T10:57:07.269Z,3.7
2019-03-12T10:57:15.161Z,3.1
2019-03-12T10:57:25.031Z,3.2
2019-03-12T10:57:33.898Z,3.3
2019-03-12T10:57:41.825Z,3.4
2019-03-12T10:57:50.697Z,4
2019-03-12T10:57:58.612Z,3.2
2019-03-12T10:58:06.528Z,4.2
2019-03-12T10:58:14.426Z,3.3
2019-03-12T10:58:22.411Z,3.6
2019-03-12T10:58:30.242Z,3.5
2019-03-12T10:58:38.155Z,3.3
2019-03-12T10:58:46.070Z,3.8
2019-03-12T10:58:53.973Z,3.8
2019-03-12T10:59:01.862Z,3.3
2019-03-12T10:59:09.783Z,4.4
2019-03-12T10:59:17.695Z,4.1
2019-03-12T10:59:26.607Z,3.6
2019-03-12T10:59:34.506Z,3.3
2019-03-12T10:59:42.407Z,3.5
2019-03-12T10:59:50.310Z,3.1
2019-03-12T10:59:58.212Z,3.3
2019-03-12T11:00:07.149Z,4.6
2019-03-12T11:00:15.055Z,4.1
2019-03-12T11:00:22.915Z,4.8
2019-03-12T11:00:30.837Z,3.7
2019-03-12T11:00:38.723Z,3.4
2019-03-12T11:00:46.618Z,2.6
2019-03-12T11:00:54.501Z,3.8
2019-03-12T11:01:02.384Z,3.4
2019-03-12T11:01:10.308Z,4.6
2019-03-12T11:01:19.189Z,4.1
2019-03-12T11:01:27.070Z,3.9
2019-03-12T11:01:34.973Z,2.7
2019-03-12T11:01:42.929Z,2.4
2019-03-12T11:01:50.854Z,3.3
2019-03-12T11:01:58.779Z,4.9
2019-03-12T11:02:06.654Z,6.1
2019-03-12T11:02:14.515Z,6.8
2019-03-12T11:02:23.391Z,5.7
2019-03-12T11:02:31.287Z,3.9
2019-03-12T11:02:40.760Z,3
2019-03-12T11:02:48.337Z,2.3
2019-03-12T11:02:56.214Z,2
2019-03-12T11:03:04.123Z,1.5
2019-03-12T11:03:12.124Z,1.4
2019-03-12T11:03:21.068Z,2.1
2019-03-12T11:03:28.950Z,2.7
2019-03-12T11:03:37.882Z,2.4
2019-03-12T11:03:45.720Z,2.4
2019-03-12T11:03:53.602Z,4.5
2019-03-12T11:04:01.481Z,4.8
2019-03-12T11:04:09.401Z,5.2
2019-03-12T11:04:17.256Z,2.4
2019-03-12T11:04:26.190Z,2.3
2019-03-12T11:04:34.082Z,2
2019-03-12T11:04:42.043Z,2.3
2019-03-12T11:04:49.995Z,2.1
2019-03-12T11:04:57.911Z,2.3
2019-03-12T11:05:05.786Z,1.8
2019-03-12T11:05:13.720Z,1.8
2019-03-12T11:05:21.597Z,2.5
2019-03-12T11:05:29.481Z,2.7
2019-03-12T11:05:46.075Z,3.4
2019-03-12T11:05:52.185Z,3.1
2019-03-12T11:06:00.076Z,3.3
2019-03-12T11:06:08.016Z,2.6
2019-03-12T11:06:15.991Z,2.5
2019-03-12T11:06:23.918Z,2.2
2019-03-12T11:06:31.792Z,3.2
2019-03-12T11:06:39.691Z,3.6
2019-03-12T11:06:47.570Z,4.3
2019-03-12T11:06:56.448Z,4.1
2019-03-12T11:07:15.733Z,4.1
2019-03-12T11:07:19.423Z,3.3
2019-03-12T11:07:27.312Z,2.6
2019-03-12T11:07:35.200Z,2.9
2019-03-12T11:07:43.095Z,3
2019-03-12T11:07:50.974Z,3.3
2019-03-12T11:07:58.905Z,3.8
2019-03-12T11:08:08.789Z,4.6
2019-03-12T11:08:16.648Z,4.5
2019-03-12T11:08:24.565Z,4.3
2019-03-12T11:08:32.525Z,4
2019-03-12T11:08:41.380Z,2.6
2019-03-12T11:08:49.262Z,2.9
2019-03-12T11:08:57.164Z,3.3
2019-03-12T11:09:05.049Z,3.9
2019-03-12T11:09:13.003Z,4.1
2019-03-12T11:09:20.887Z,4.5
2019-03-12T11:09:28.803Z,3.8
2019-03-12T11:09:36.806Z,4.1
2019-03-12T11:09:44.742Z,3.9
2019-03-12T11:09:52.692Z,3
2019-03-12T11:10:01.576Z,3.3
2019-03-12T11:10:10.442Z,4.1
2019-03-12T11:10:18.329Z,4.6
2019-03-12T11:10:26.218Z,4.5
2019-03-12T11:10:34.125Z,3.1
2019-03-12T11:10:41.994Z,2.8
2019-03-12T11:10:50.668Z,2.4
2019-03-12T11:10:58.567Z,2.7
2019-03-12T11:11:07.395Z,2.6
2019-03-12T11:11:16.313Z,2.5
2019-03-12T11:11:24.221Z,2.6
2019-03-12T11:11:32.091Z,2.8
2019-03-12T11:11:40.020Z,3
2019-03-12T11:11:48.894Z,3
2019-03-12T11:11:56.771Z,3.3
2019-03-12T11:12:04.675Z,3.7
2019-03-12T11:12:12.529Z,3.2
2019-03-12T11:12:21.438Z,3.6
2019-03-12T11:12:29.394Z,3
2019-03-12T11:12:37.285Z,3
2019-03-12T11:12:45.161Z,3.4
2019-03-12T11:12:53.040Z,3.2
2019-03-12T11:13:00.935Z,4
2019-03-12T11:13:08.812Z,3.9
2019-03-12T11:13:18.724Z,4
2019-03-12T11:13:26.631Z,8.3
2019-03-12T11:13:34.526Z,8.3
2019-03-12T11:13:42.421Z,10
2019-03-12T11:13:50.324Z,12.8
2019-03-12T11:13:58.237Z,6.9
2019-03-12T11:14:06.123Z,7.3
2019-03-12T11:14:15.018Z,5.8
2019-03-12T11:14:22.973Z,4
2019-03-12T11:14:30.859Z,4.7
2019-03-12T11:14:38.721Z,5.7
2019-03-12T11:14:46.659Z,5.6
2019-03-12T11:14:54.563Z,4.9
2019-03-12T11:15:02.478Z,3.6
2019-03-12T11:15:10.436Z,3.2
2019-03-12T11:15:18.300Z,7
2019-03-12T11:15:27.148Z,7.6
2019-03-12T11:15:35.064Z,7
2019-03-12T11:15:42.932Z,5.8
2019-03-12T11:15:50.778Z,2.5
2019-03-12T11:15:58.661Z,1.7
2019-03-12T11:16:06.519Z,3.3
2019-03-12T11:16:14.435Z,3.9
2019-03-12T11:16:22.290Z,3.7
2019-03-12T11:16:30.169Z,5.1
2019-03-12T11:16:38.104Z,4.5
2019-03-12T11:16:46.012Z,5.6
2019-03-12T11:16:53.879Z,5.7
2019-03-12T11:17:01.745Z,5.6
2019-03-12T11:17:09.713Z,4.6
2019-03-12T11:17:17.589Z,5.6
2019-03-12T11:17:25.507Z,6.4
2019-03-12T11:17:33.415Z,5.1
2019-03-12T11:17:49.751Z,3
2019-03-12T11:17:56.147Z,2.3
2019-03-12T11:18:04.174Z,2.9
2019-03-12T11:18:12.066Z,3.1
2019-03-12T11:18:19.992Z,2.6
2019-03-12T11:18:27.869Z,2.4
2019-03-12T11:18:35.849Z,2.4
2019-03-12T11:18:43.753Z,2.8
2019-03-12T11:18:51.695Z,3
2019-03-12T11:18:59.665Z,3
2019-03-12T11:19:07.668Z,3
2019-03-12T11:19:15.578Z,2.8
2019-03-12T11:19:23.507Z,2.5
2019-03-12T11:19:31.380Z,3.2
2019-03-12T11:19:39.289Z,3.8
2019-03-12T11:19:47.205Z,3.5
2019-03-12T11:19:55.088Z,3.5
2019-03-12T11:20:03.016Z,3.7
2019-03-12T11:20:10.927Z,3.7
2019-03-12T11:20:19.789Z,3.6
2019-03-12T11:20:27.686Z,2.6
2019-03-12T11:20:35.582Z,4.6
2019-03-12T11:20:43.471Z,3.7
2019-03-12T11:20:51.323Z,3.9
2019-03-12T11:21:01.166Z,3.2
2019-03-12T11:21:10.070Z,2.4
2019-03-12T11:21:18.932Z,2.1
2019-03-12T11:21:26.831Z,2.4
2019-03-12T11:21:35.747Z,2.7
2019-03-12T11:21:43.673Z,2.3
2019-03-12T11:21:51.577Z,2.7
2019-03-12T11:21:59.450Z,2.9
2019-03-12T11:22:08.318Z,3
2019-03-12T11:22:16.256Z,3.1
2019-03-12T11:22:24.180Z,2.9
2019-03-12T11:22:32.064Z,3.1
2019-03-12T11:22:39.928Z,2.8
2019-03-12T11:22:47.803Z,2.5
2019-03-12T11:22:55.694Z,3.1
2019-03-12T11:23:03.593Z,3.2
2019-03-12T11:23:11.500Z,3.4
2019-03-12T11:23:20.148Z,3.9
2019-03-12T11:23:29.020Z,3.5
2019-03-12T11:23:36.928Z,3.3
2019-03-12T11:23:44.886Z,3.9
2019-03-12T11:23:52.772Z,4.4
2019-03-12T11:24:00.734Z,6
2019-03-12T11:24:08.630Z,7.2
2019-03-12T11:24:17.492Z,6.6
2019-03-12T11:24:25.418Z,5.8
2019-03-12T11:24:33.343Z,4.4
2019-03-12T11:24:41.360Z,3
2019-03-12T11:24:49.234Z,2.9
2019-03-12T11:24:57.148Z,2.9
2019-03-12T11:25:05.022Z,2.9
2019-03-12T11:25:25.828Z,2.4
2019-03-12T11:25:28.365Z,2.4
2019-03-12T11:25:35.718Z,2.7
2019-03-12T11:25:43.671Z,2.6
2019-03-12T11:25:51.605Z,1.8
2019-03-12T11:25:59.553Z,2.2
2019-03-12T11:26:08.491Z,2.2
2019-03-12T11:26:16.450Z,3.8
2019-03-12T11:26:24.383Z,4.6
2019-03-12T11:26:32.280Z,4.6
2019-03-12T11:26:40.165Z,6.5
2019-03-12T11:26:48.058Z,10.1
2019-03-12T11:26:56.927Z,12.8
2019-03-12T11:27:04.938Z,14.5
2019-03-12T11:27:12.855Z,10.4
2019-03-12T11:27:20.754Z,6.8
2019-03-12T11:27:28.727Z,5
2019-03-12T11:27:36.629Z,4.1
2019-03-12T11:27:44.496Z,4.2
2019-03-12T11:27:52.448Z,4.3
2019-03-12T11:28:00.358Z,2.8
2019-03-12T11:28:08.273Z,2.6
2019-03-12T11:28:16.234Z,3.3
2019-03-12T11:28:26.587Z,6.4
2019-03-12T11:28:33.993Z,6.6
2019-03-12T11:28:41.887Z,6.6
2019-03-12T11:28:49.813Z,4.6
2019-03-12T11:28:57.700Z,2.9
2019-03-12T11:29:05.585Z,2.5
2019-03-12T11:29:13.484Z,3.7
2019-03-12T11:29:22.397Z,3.8
2019-03-12T11:29:30.255Z,4.2
2019-03-12T11:29:38.142Z,3.3
2019-03-12T11:29:46.026Z,2.6
2019-03-12T11:29:54.927Z,2.3
2019-03-12T11:30:02.812Z,3.1
2019-03-12T11:30:10.774Z,3.6
2019-03-12T11:30:18.648Z,4.4
2019-03-12T11:30:26.526Z,5.2
2019-03-12T11:30:34.501Z,4.5
2019-03-12T11:30:42.426Z,4.2
2019-03-12T11:30:50.358Z,4.2
2019-03-12T11:30:58.320Z,4
2019-03-12T11:31:06.186Z,4
2019-03-12T11:31:14.082Z,4
2019-03-12T11:31:21.958Z,3.1
2019-03-12T11:31:29.947Z,1.9
2019-03-12T11:31:37.780Z,2.1
2019-03-12T11:31:45.652Z,2.2
2019-03-12T11:31:53.614Z,2.2
2019-03-12T11:32:01.494Z,2.3
2019-03-12T11:32:09.388Z,2.1
2019-03-12T11:32:17.340Z,2.7
2019-03-12T11:32:25.246Z,3.2
2019-03-12T11:32:33.261Z,3.7
2019-03-12T11:32:42.124Z,4
2019-03-12T11:32:50.004Z,3.4
2019-03-12T11:32:57.921Z,4.5
2019-03-12T11:33:05.782Z,4.5
2019-03-12T11:33:13.654Z,5.5
2019-03-12T11:33:21.541Z,4.6
2019-03-12T11:33:29.397Z,4
2019-03-12T11:33:37.291Z,2.3
2019-03-12T11:33:45.172Z,2.9
2019-03-12T11:33:53.040Z,3.2
2019-03-12T11:34:00.970Z,2.8
2019-03-12T11:34:08.904Z,3.5
2019-03-12T11:34:16.849Z,3.5
2019-03-12T11:34:24.688Z,4.8
2019-03-12T11:34:32.552Z,5.2
2019-03-12T11:34:41.440Z,3.6
2019-03-12T11:34:49.402Z,3.5
2019-03-12T11:34:57.308Z,4.5
2019-03-12T11:35:05.194Z,4.9
2019-03-12T11:35:13.150Z,5.2
2019-03-12T11:35:20.998Z,3.6
2019-03-12T11:35:38.495Z,3.6
2019-03-12T11:35:42.830Z,4.2
2019-03-12T11:35:50.780Z,3.9
2019-03-12T11:35:58.653Z,4.4
2019-03-12T11:36:06.592Z,4.8
2019-03-12T11:36:14.969Z,4.1
2019-03-12T11:36:22.374Z,3.8
2019-03-12T11:36:30.259Z,3.4
2019-03-12T11:36:38.116Z,1.9
2019-03-12T11:36:46.087Z,1.9
2019-03-12T11:36:54.151Z,2.5
2019-03-12T11:37:02.047Z,2.8
2019-03-12T11:37:09.952Z,3
2019-03-12T11:37:18.845Z,3
2019-03-12T11:37:26.750Z,4.4
2019-03-12T11:37:35.629Z,3.8
2019-03-12T11:37:43.486Z,3.7
2019-03-12T11:37:51.358Z,3
2019-03-12T11:37:59.258Z,2.5
2019-03-12T11:38:07.162Z,2.8
2019-03-12T11:38:15.053Z,3.3
2019-03-12T11:38:22.984Z,3.5
2019-03-12T11:38:30.873Z,3
2019-03-12T11:38:38.754Z,3.1
2019-03-12T11:38:46.650Z,3.6
2019-03-12T11:38:54.572Z,3.4
2019-03-12T11:39:02.401Z,3.2
2019-03-12T11:39:11.331Z,3.2
2019-03-12T11:39:21.158Z,2.4
2019-03-12T11:39:29.052Z,2.5
2019-03-12T11:39:36.930Z,1.9
2019-03-12T11:39:44.873Z,3.1
2019-03-12T11:39:52.831Z,3.4
2019-03-12T11:40:01.859Z,3.6
2019-03-12T11:40:09.661Z,3.4
2019-03-12T11:40:17.526Z,3.4
2019-03-12T11:40:26.808Z,2.8
2019-03-12T11:40:37.285Z,3
2019-03-12T11:40:45.175Z,2.8
2019-03-12T11:40:53.055Z,3.2
2019-03-12T11:41:01.036Z,3.3
2019-03-12T11:41:08.856Z,3.4
2019-03-12T11:41:17.072Z,4.1
2019-03-12T11:41:24.975Z,2.8
2019-03-12T11:41:32.545Z,3.3
2019-03-12T11:41:40.461Z,2.8
2019-03-12T11:41:49.482Z,2.3
2019-03-12T11:41:57.355Z,2.1
2019-03-12T11:42:05.244Z,2.3
2019-03-12T11:42:13.216Z,2.8
2019-03-12T11:42:21.101Z,3.5
2019-03-12T11:42:29.032Z,3.4
2019-03-12T11:42:36.855Z,3.7
2019-03-12T11:42:44.820Z,3.5
2019-03-12T11:42:54.012Z,4.5
2019-03-12T11:43:02.707Z,3.8
2019-03-12T11:43:10.497Z,3.4
2019-03-12T11:43:18.369Z,2.4
2019-03-12T11:43:26.332Z,1.4
2019-03-12T11:43:34.245Z,2.2
2019-03-12T11:43:42.182Z,2.5
2019-03-12T11:43:50.064Z,2.6
2019-03-12T11:43:57.981Z,2.6
2019-03-12T11:44:05.843Z,2.9
2019-03-12T11:44:13.760Z,3.3
2019-03-12T11:44:21.655Z,3.4
2019-03-12T11:44:29.578Z,4.1
2019-03-12T11:44:37.396Z,3.4
2019-03-12T11:44:45.324Z,4.4
2019-03-12T11:44:53.268Z,4.7
2019-03-12T11:45:01.557Z,4.3
2019-03-12T11:45:16.711Z,3.5
2019-03-12T11:45:36.060Z,2.4
2019-03-12T11:45:41.678Z,2.3
2019-03-12T11:45:49.646Z,2.2
2019-03-12T11:45:58.593Z,2.4
2019-03-12T11:46:06.569Z,2.2
2019-03-12T11:46:14.618Z,2.6
2019-03-12T11:46:23.407Z,2.3
2019-03-12T11:46:41.314Z,2.6
2019-03-12T11:46:47.197Z,2.9
2019-03-12T11:46:56.116Z,3.7
2019-03-12T11:47:05.151Z,3.4
2019-03-12T11:47:12.977Z,3.8
2019-03-12T11:47:20.854Z,3.7
2019-03-12T11:47:28.745Z,3.5
2019-03-12T11:47:36.620Z,2.5
2019-03-12T11:47:44.598Z,1.9
2019-03-12T11:47:52.497Z,2.3
2019-03-12T11:48:00.371Z,2.2
2019-03-12T11:48:08.331Z,2.7
2019-03-12T11:48:17.120Z,2.8
2019-03-12T11:48:24.975Z,2.1
2019-03-12T11:48:32.890Z,2.9
2019-03-12T11:48:40.765Z,3.1
2019-03-12T11:48:48.688Z,3.3
2019-03-12T11:48:56.596Z,3.2
2019-03-12T11:49:04.394Z,2.8
2019-03-12T11:49:12.285Z,2.5
2019-03-12T11:49:20.258Z,2.3
2019-03-12T11:49:28.021Z,2.6
2019-03-12T11:49:35.918Z,2.8
2019-03-12T11:49:43.822Z,3.1
2019-03-12T11:49:51.662Z,3.4
2019-03-12T11:49:59.576Z,3.2
2019-03-12T11:50:07.571Z,2.9
2019-03-12T11:50:15.425Z,3
2019-03-12T11:50:23.361Z,3.2
2019-03-12T11:50:31.288Z,3.8
2019-03-12T11:50:39.104Z,3
2019-03-12T11:50:47.036Z,3.5
2019-03-12T11:50:55.241Z,2.9
2019-03-12T11:51:02.890Z,2.8
2019-03-12T11:51:10.810Z,3.8
2019-03-12T11:51:18.719Z,3.7
2019-03-12T11:51:26.616Z,3.5
2019-03-12T11:51:34.519Z,3.7
2019-03-12T11:51:42.451Z,3.2
2019-03-12T11:51:50.329Z,2.7
2019-03-12T11:51:58.234Z,2.9
2019-03-12T11:52:06.117Z,2.9
2019-03-12T11:52:14.041Z,2.5
2019-03-12T11:52:21.951Z,1.5
2019-03-12T11:52:29.813Z,2.1
2019-03-12T11:52:38.701Z,2.4
2019-03-12T11:52:55.409Z,2.5
2019-03-12T11:53:03.406Z,2.8
2019-03-12T11:53:11.322Z,2.8
2019-03-12T11:53:19.183Z,3.8
2019-03-12T11:53:27.043Z,3.3
2019-03-12T11:53:34.921Z,3.2
2019-03-12T11:53:42.831Z,2.6
2019-03-12T11:53:50.751Z,2.7
2019-03-12T11:53:58.629Z,2.7
2019-03-12T11:54:07.498Z,3
2019-03-12T11:54:15.447Z,2.4
2019-03-12T11:54:23.344Z,2.2
2019-03-12T11:54:31.226Z,2.4
2019-03-12T11:54:39.099Z,2.4
2019-03-12T11:54:47.077Z,2.6
2019-03-12T11:54:54.917Z,2.8
2019-03-12T11:55:03.889Z,3
2019-03-12T11:55:12.784Z,3.2
2019-03-12T11:55:20.608Z,3.5
2019-03-12T11:55:28.580Z,4.2
2019-03-12T11:55:36.446Z,4.3
2019-03-12T11:55:45.316Z,4.4
2019-03-12T11:55:53.185Z,3.8
2019-03-12T11:56:01.078Z,3.5
2019-03-12T11:56:09.027Z,3.2
2019-03-12T11:56:16.931Z,4
2019-03-12T11:56:24.802Z,3.5
2019-03-12T11:56:32.693Z,3.6
2019-03-12T11:56:40.636Z,2.9
2019-03-12T11:56:48.524Z,3
2019-03-12T11:56:57.392Z,3.8
2019-03-12T11:57:06.358Z,2.4
2019-03-12T11:57:14.233Z,2.7
2019-03-12T11:57:22.192Z,2.8
2019-03-12T11:57:30.049Z,1.5
2019-03-12T11:57:37.926Z,1.9
2019-03-12T11:57:46.762Z,1.8
2019-03-12T11:57:54.669Z,1.8
2019-03-12T11:58:02.632Z,1.7
2019-03-12T11:58:10.489Z,2.2
2019-03-12T11:58:18.453Z,2.3
2019-03-12T11:58:26.371Z,3
2019-03-12T11:58:34.210Z,3.1
2019-03-12T11:58:42.091Z,2.6
2019-03-12T11:58:50.044Z,3.1
2019-03-12T11:58:57.920Z,2.7
2019-03-12T11:59:05.727Z,3.5
2019-03-12T11:59:13.641Z,3.7
2019-03-12T11:59:21.554Z,3.7
2019-03-12T11:59:29.430Z,3.3
2019-03-12T11:59:37.420Z,2.7
2019-03-12T11:59:47.319Z,4.1
2019-03-12T11:59:55.213Z,5.9
2019-03-12T12:00:03.171Z,6.9
2019-03-12T12:00:11.164Z,8.7
2019-03-12T12:00:21.069Z,5.5
2019-03-12T12:00:29.182Z,4.8
2019-03-12T12:00:37.021Z,4
2019-03-12T12:00:44.815Z,4.6
2019-03-12T12:00:52.747Z,4
2019-03-12T12:01:00.622Z,3.3
2019-03-12T12:01:08.521Z,2.3
2019-03-12T12:01:16.464Z,1.5
2019-03-12T12:01:24.442Z,2.2
2019-03-12T12:01:32.350Z,2.9
2019-03-12T12:01:40.340Z,3
2019-03-12T12:01:48.351Z,3.8
2019-03-12T12:01:56.240Z,3.3
2019-03-12T12:02:04.139Z,2.9
2019-03-12T12:02:12.169Z,3.2
2019-03-12T12:02:21.206Z,3.1
2019-03-12T12:02:29.181Z,2.7
2019-03-12T12:02:37.127Z,2.9
2019-03-12T12:02:58.918Z,3.3
2019-03-12T12:03:00.906Z,3.2
2019-03-12T12:03:08.808Z,4.4
2019-03-12T12:03:16.789Z,3.7
2019-03-12T12:03:24.663Z,3.8
2019-03-12T12:03:32.596Z,3.8
2019-03-12T12:03:41.527Z,2.6
2019-03-12T12:03:49.404Z,1.9
2019-03-12T12:03:57.288Z,2
2019-03-12T12:04:05.291Z,1.5
2019-03-12T12:04:13.462Z,1.5
2019-03-12T12:04:21.363Z,2.1
2019-03-12T12:04:29.410Z,2.6
2019-03-12T12:04:37.436Z,2.8
2019-03-12T12:04:45.402Z,3.2
2019-03-12T12:04:53.341Z,3.2
2019-03-12T12:05:02.301Z,3.3
2019-03-12T12:05:10.493Z,3.1
2019-03-12T12:05:19.735Z,3
2019-03-12T12:05:27.642Z,2.7
2019-03-12T12:05:35.603Z,2.2
2019-03-12T12:05:43.671Z,1.7
2019-03-12T12:05:51.605Z,2
2019-03-12T12:05:59.857Z,3
2019-03-12T12:06:07.536Z,3.3
2019-03-12T12:06:15.766Z,2.8
2019-03-12T12:06:23.579Z,2.7
2019-03-12T12:06:31.495Z,3
2019-03-12T12:06:42.860Z,2.6
2019-03-12T12:06:50.457Z,2.6
2019-03-12T12:06:59.401Z,1.9
2019-03-12T12:07:07.284Z,2.4
2019-03-12T12:07:15.268Z,2.2
2019-03-12T12:07:23.200Z,2.4
2019-03-12T12:07:31.220Z,2.8
2019-03-12T12:07:39.116Z,1.9
2019-03-12T12:07:47.017Z,2
2019-03-12T12:07:54.948Z,2
2019-03-12T12:08:02.947Z,2.1
2019-03-12T12:08:10.740Z,2.3
2019-03-12T12:08:18.670Z,2.1
2019-03-12T12:08:26.677Z,2
2019-03-12T12:08:34.727Z,2.2
2019-03-12T12:08:42.614Z,2.3